Terminal Aerodrome Forecast
Issued by NWS Kansas City/Pleasant Hill, MO

Current Version | Previous Version | Text Only | Print | Product List | Glossary On
Versions: 1 2 3 4 5 6 7 8 9 10 11 12 13 14 15 16 17
000
FTUS43 KEAX 161312 AAA
TAFMCI
TAF AMD
KMCI 161312Z 1613/1712 17012KT 6SM -TSRA BR BKN025CB OVC070
     FM161400 18007KT P6SM SCT025 BKN070
     FM161600 19009KT P6SM VCTS BKN060CB
      TEMPO 1701/1704 2SM TSRA BKN035CB
     FM170700 23006KT P6SM BKN015=

USA.gov is the U.S. government's official web portal to all federal, state and local government web resources and services.